sensor_id;sensor_type;location;lat;lon;timestamp;temperature;humidity
23738;DHT22;12049;51.068;3.688;2022-10-01T00:00:24;12.20;99.90
23738;DHT22;12049;51.068;3.688;2022-10-01T00:02:53;12.20;99.90
23738;DHT22;12049;51.068;3.688;2022-10-01T00:05:19;12.20;99.90
23738;DHT22;12049;51.068;3.688;2022-10-01T00:07:45;12.10;99.90
23738;DHT22;12049;51.068;3.688;2022-10-01T00:10:11;12.20;99.90
23738;DHT22;12049;51.068;3.688;2022-10-01T00:12:37;12.20;99.90
23738;DHT22;12049;51.068;3.688;2022-10-01T00:15:04;12.20;99.90
23738;DHT22;12049;51.068;3.688;2022-10-01T00:17:34;12.20;99.90
23738;DHT22;12049;51.068;3.688;2022-10-01T00:19:59;12.20;99.90
23738;DHT22;12049;51.068;3.688;2022-10-01T00:22:25;12.20;99.90
23738;DHT22;12049;51.068;3.688;2022-10-01T00:24:50;12.30;99.90
23738;DHT22;12049;51.068;3.688;2022-10-01T00:27:16;12.40;99.90
23738;DHT22;12049;51.068;3.688;2022-10-01T00:29:42;12.40;99.90
23738;DHT22;12049;51.068;3.688;2022-10-01T00:32:09;12.30;99.90
23738;DHT22;12049;51.068;3.688;2022-10-01T00:34:35;12.40;99.90
23738;DHT22;12049;51.068;3.688;2022-10-01T00:37:00;12.40;99.90
23738;DHT22;12049;51.068;3.688;2022-10-01T00:39:26;12.50;99.90
23738;DHT22;12049;51.068;3.688;2022-10-01T00:41:51;12.50;99.90
23738;DHT22;12049;51.068;3.688;2022-10-01T00:44:28;12.40;99.90
23738;DHT22;12049;51.068;3.688;2022-10-01T00:46:53;12.30;99.90
23738;DHT22;12049;51.068;3.688;2022-10-01T00:49:21;12.30;99.90
23738;DHT22;12049;51.068;3.688;2022-10-01T00:51:49;12.30;99.90
23738;DHT22;12049;51.068;3.688;2022-10-01T00:54:23;12.30;99.90
23738;DHT22;12049;51.068;3.688;2022-10-01T00:56:50;12.40;99.90
23738;DHT22;12049;51.068;3.688;2022-10-01T00:59:16;12.50;99.90
23738;DHT22;12049;51.068;3.688;2022-10-01T01:01:42;12.60;99.90
23738;DHT22;12049;51.068;3.688;2022-10-01T01:04:09;12.60;99.90
23738;DHT22;12049;51.068;3.688;2022-10-01T01:06:43;12.60;99.90
23738;DHT22;12049;51.068;3.688;2022-10-01T01:09:10;12.70;99.90
23738;DHT22;12049;51.068;3.688;2022-10-01T01:16:34;12.60;99.90
23738;DHT22;12049;51.068;3.688;2022-10-01T01:21:38;12.60;99.90
23738;DHT22;12049;51.068;3.688;2022-10-01T01:31:50;12.90;99.90
23738;DHT22;12049;51.068;3.688;2022-10-01T01:34:19;12.80;99.90
23738;DHT22;12049;51.068;3.688;2022-10-01T01:36:48;12.80;99.90
23738;DHT22;12049;51.068;3.688;2022-10-01T01:39:15;12.70;99.90
23738;DHT22;12049;51.068;3.688;2022-10-01T01:41:45;12.80;99.90
23738;DHT22;12049;51.068;3.688;2022-10-01T01:44:14;12.80;99.90
23738;DHT22;12049;51.068;3.688;2022-10-01T01:46:42;12.90;99.90
23738;DHT22;12049;51.068;3.688;2022-10-01T01:49:09;12.90;99.90
23738;DHT22;12049;51.068;3.688;2022-10-01T01:51:46;12.90;99.90
23738;DHT22;12049;51.068;3.688;2022-10-01T01:54:13;12.90;99.90
23738;DHT22;12049;51.068;3.688;2022-10-01T01:56:39;13.00;99.90
23738;DHT22;12049;51.068;3.688;2022-10-01T01:59:04;13.10;99.90
23738;DHT22;12049;51.068;3.688;2022-10-01T02:01:37;13.10;99.90
23738;DHT22;12049;51.068;3.688;2022-10-01T02:04:04;13.10;99.90
23738;DHT22;12049;51.068;3.688;2022-10-01T02:06:41;13.10;99.90
23738;DHT22;12049;51.068;3.688;2022-10-01T02:12:29;13.30;99.90
23738;DHT22;12049;51.068;3.688;2022-10-01T02:14:51;13.10;99.90
23738;DHT22;12049;51.068;3.688;2022-10-01T02:17:27;13.20;99.90
23738;DHT22;12049;51.068;3.688;2022-10-01T02:20:01;13.40;99.90
23738;DHT22;12049;51.068;3.688;2022-10-01T02:25:03;13.50;99.90
23738;DHT22;12049;51.068;3.688;2022-10-01T02:27:31;13.40;99.90
23738;DHT22;12049;51.068;3.688;2022-10-01T02:29:58;13.40;99.90
23738;DHT22;12049;51.068;3.688;2022-10-01T02:32:25;13.30;99.90
23738;DHT22;12049;51.068;3.688;2022-10-01T02:34:52;13.40;99.90
23738;DHT22;12049;51.068;3.688;2022-10-01T02:37:20;13.50;99.90
23738;DHT22;12049;51.068;3.688;2022-10-01T02:39:46;13.50;99.90
23738;DHT22;12049;51.068;3.688;2022-10-01T02:42:12;13.60;99.90
23738;DHT22;12049;51.068;3.688;2022-10-01T02:44:39;13.60;99.90
23738;DHT22;12049;51.068;3.688;2022-10-01T02:49:32;13.50;99.90
23738;DHT22;12049;51.068;3.688;2022-10-01T02:52:06;13.50;99.90
23738;DHT22;12049;51.068;3.688;2022-10-01T02:54:41;13.70;99.90
23738;DHT22;12049;51.068;3.688;2022-10-01T02:57:09;13.80;99.90
23738;DHT22;12049;51.068;3.688;2022-10-01T02:59:57;13.70;99.90
23738;DHT22;12049;51.068;3.688;2022-10-01T03:02:24;13.70;99.90
23738;DHT22;12049;51.068;3.688;2022-10-01T03:04:55;13.70;99.90
23738;DHT22;12049;51.068;3.688;2022-10-01T03:07:25;13.80;99.90
23738;DHT22;12049;51.068;3.688;2022-10-01T03:09:50;13.80;99.90
23738;DHT22;12049;51.068;3.688;2022-10-01T03:12:16;13.80;99.90
23738;DHT22;12049;51.068;3.688;2022-10-01T03:14:43;13.80;99.90
23738;DHT22;12049;51.068;3.688;2022-10-01T03:17:09;13.80;99.90
23738;DHT22;12049;51.068;3.688;2022-10-01T03:19:34;13.80;99.90
23738;DHT22;12049;51.068;3.688;2022-10-01T03:22:00;13.90;99.90
23738;DHT22;12049;51.068;3.688;2022-10-01T03:24:26;13.90;99.90
23738;DHT22;12049;51.068;3.688;2022-10-01T03:26:51;13.90;99.90
23738;DHT22;12049;51.068;3.688;2022-10-01T03:29:17;13.90;99.90
23738;DHT22;12049;51.068;3.688;2022-10-01T03:31:42;13.90;99.90
23738;DHT22;12049;51.068;3.688;2022-10-01T03:34:08;14.00;99.90
23738;DHT22;12049;51.068;3.688;2022-10-01T03:36:33;14.10;99.90
23738;DHT22;12049;51.068;3.688;2022-10-01T03:38:59;14.10;99.90
23738;DHT22;12049;51.068;3.688;2022-10-01T03:41:24;14.20;99.90
23738;DHT22;12049;51.068;3.688;2022-10-01T03:43:50;14.20;99.90
23738;DHT22;12049;51.068;3.688;2022-10-01T03:46:15;14.40;99.90
23738;DHT22;12049;51.068;3.688;2022-10-01T03:48:41;14.40;99.90
23738;DHT22;12049;51.068;3.688;2022-10-01T03:51:07;14.40;99.90
23738;DHT22;12049;51.068;3.688;2022-10-01T03:53:32;14.40;99.90
23738;DHT22;12049;51.068;3.688;2022-10-01T03:55:58;14.40;99.90
23738;DHT22;12049;51.068;3.688;2022-10-01T03:58:24;14.40;99.90
23738;DHT22;12049;51.068;3.688;2022-10-01T04:00:50;14.40;99.90
23738;DHT22;12049;51.068;3.688;2022-10-01T04:03:16;14.40;99.90
23738;DHT22;12049;51.068;3.688;2022-10-01T04:05:42;14.30;99.90
23738;DHT22;12049;51.068;3.688;2022-10-01T04:08:08;14.40;99.90
23738;DHT22;12049;51.068;3.688;2022-10-01T04:10:34;14.40;99.90
23738;DHT22;12049;51.068;3.688;2022-10-01T04:12:59;14.40;99.90
23738;DHT22;12049;51.068;3.688;2022-10-01T04:15:28;14.40;99.90
23738;DHT22;12049;51.068;3.688;2022-10-01T04:17:54;14.40;99.90
23738;DHT22;12049;51.068;3.688;2022-10-01T04:20:19;14.50;99.90
23738;DHT22;12049;51.068;3.688;2022-10-01T04:22:45;14.40;99.90
23738;DHT22;12049;51.068;3.688;2022-10-01T04:25:11;14.40;99.90
23738;DHT22;12049;51.068;3.688;2022-10-01T04:27:37;14.40;99.90
23738;DHT22;12049;51.068;3.688;2022-10-01T04:30:03;14.40;99.90
23738;DHT22;12049;51.068;3.688;2022-10-01T04:32:29;14.40;99.90
23738;DHT22;12049;51.068;3.688;2022-10-01T04:34:54;14.50;99.90
23738;DHT22;12049;51.068;3.688;2022-10-01T04:37:20;14.40;99.90
23738;DHT22;12049;51.068;3.688;2022-10-01T04:39:46;14.40;99.90
23738;DHT22;12049;51.068;3.688;2022-10-01T04:42:12;14.50;99.90
23738;DHT22;12049;51.068;3.688;2022-10-01T04:44:37;14.50;99.90
23738;DHT22;12049;51.068;3.688;2022-10-01T04:47:03;14.60;99.90
23738;DHT22;12049;51.068;3.688;2022-10-01T04:49:29;14.60;99.90
23738;DHT22;12049;51.068;3.688;2022-10-01T04:51:56;14.50;99.90
23738;DHT22;12049;51.068;3.688;2022-10-01T04:54:22;14.60;99.90
23738;DHT22;12049;51.068;3.688;2022-10-01T04:56:47;14.50;99.90
23738;DHT22;12049;51.068;3.688;2022-10-01T04:59:13;14.50;99.90
23738;DHT22;12049;51.068;3.688;2022-10-01T05:01:38;14.60;99.90
23738;DHT22;12049;51.068;3.688;2022-10-01T05:04:06;14.60;99.90
23738;DHT22;12049;51.068;3.688;2022-10-01T05:06:32;14.60;99.90
23738;DHT22;12049;51.068;3.688;2022-10-01T05:09:00;14.60;99.90
23738;DHT22;12049;51.068;3.688;2022-10-01T05:11:26;14.60;99.90
23738;DHT22;12049;51.068;3.688;2022-10-01T05:13:51;14.60;99.90
23738;DHT22;12049;51.068;3.688;2022-10-01T05:16:17;14.60;99.90
23738;DHT22;12049;51.068;3.688;2022-10-01T05:18:42;14.60;99.90
23738;DHT22;12049;51.068;3.688;2022-10-01T05:21:08;14.60;99.90
23738;DHT22;12049;51.068;3.688;2022-10-01T05:23:36;14.70;99.90
23738;DHT22;12049;51.068;3.688;2022-10-01T05:26:01;14.70;99.90
23738;DHT22;12049;51.068;3.688;2022-10-01T05:28:30;14.80;99.90
23738;DHT22;12049;51.068;3.688;2022-10-01T05:30:57;14.80;99.90
23738;DHT22;12049;51.068;3.688;2022-10-01T05:33:25;14.80;99.90
23738;DHT22;12049;51.068;3.688;2022-10-01T05:35:51;14.80;99.90
23738;DHT22;12049;51.068;3.688;2022-10-01T05:38:17;14.80;99.90
23738;DHT22;12049;51.068;3.688;2022-10-01T05:40:46;14.80;99.90
23738;DHT22;12049;51.068;3.688;2022-10-01T05:43:12;14.80;99.90
23738;DHT22;12049;51.068;3.688;2022-10-01T05:45:37;14.80;99.90
23738;DHT22;12049;51.068;3.688;2022-10-01T05:48:07;14.80;99.90
23738;DHT22;12049;51.068;3.688;2022-10-01T05:50:34;14.80;99.90
23738;DHT22;12049;51.068;3.688;2022-10-01T05:53:00;14.90;99.90
23738;DHT22;12049;51.068;3.688;2022-10-01T05:55:26;14.80;99.90
23738;DHT22;12049;51.068;3.688;2022-10-01T05:57:56;14.80;99.90
23738;DHT22;12049;51.068;3.688;2022-10-01T06:00:22;14.80;99.90
23738;DHT22;12049;51.068;3.688;2022-10-01T06:02:51;14.90;99.90
23738;DHT22;12049;51.068;3.688;2022-10-01T06:05:17;14.90;99.90
23738;DHT22;12049;51.068;3.688;2022-10-01T06:07:43;15.00;99.90
23738;DHT22;12049;51.068;3.688;2022-10-01T06:10:08;15.00;99.90
23738;DHT22;12049;51.068;3.688;2022-10-01T06:12:34;15.00;99.90
23738;DHT22;12049;51.068;3.688;2022-10-01T06:14:59;15.00;99.90
23738;DHT22;12049;51.068;3.688;2022-10-01T06:17:25;14.90;99.90
23738;DHT22;12049;51.068;3.688;2022-10-01T06:19:50;14.90;99.90
23738;DHT22;12049;51.068;3.688;2022-10-01T06:22:16;14.90;99.90
23738;DHT22;12049;51.068;3.688;2022-10-01T06:24:41;14.90;99.90
23738;DHT22;12049;51.068;3.688;2022-10-01T06:27:07;15.00;99.90
23738;DHT22;12049;51.068;3.688;2022-10-01T06:29:33;15.00;99.90
23738;DHT22;12049;51.068;3.688;2022-10-01T06:31:59;15.00;99.90
23738;DHT22;12049;51.068;3.688;2022-10-01T06:34:24;15.10;99.90
23738;DHT22;12049;51.068;3.688;2022-10-01T06:36:50;15.20;99.90
23738;DHT22;12049;51.068;3.688;2022-10-01T06:39:16;15.30;99.90
23738;DHT22;12049;51.068;3.688;2022-10-01T06:41:41;15.30;99.90
23738;DHT22;12049;51.068;3.688;2022-10-01T06:44:08;15.30;99.90
23738;DHT22;12049;51.068;3.688;2022-10-01T06:46:33;15.40;99.90
23738;DHT22;12049;51.068;3.688;2022-10-01T06:48:59;15.50;99.90
23738;DHT22;12049;51.068;3.688;2022-10-01T06:51:25;15.60;99.90
23738;DHT22;12049;51.068;3.688;2022-10-01T06:54:22;15.70;99.90
23738;DHT22;12049;51.068;3.688;2022-10-01T06:56:50;15.70;99.90
23738;DHT22;12049;51.068;3.688;2022-10-01T06:59:15;15.80;99.90
23738;DHT22;12049;51.068;3.688;2022-10-01T07:01:41;16.30;99.90
23738;DHT22;12049;51.068;3.688;2022-10-01T07:04:06;16.80;99.90
23738;DHT22;12049;51.068;3.688;2022-10-01T07:06:32;17.40;99.90
23738;DHT22;12049;51.068;3.688;2022-10-01T07:08:57;17.90;99.90
23738;DHT22;12049;51.068;3.688;2022-10-01T07:11:23;18.20;99.90
23738;DHT22;12049;51.068;3.688;2022-10-01T07:13:49;18.80;99.90
23738;DHT22;12049;51.068;3.688;2022-10-01T07:16:14;19.50;99.90
23738;DHT22;12049;51.068;3.688;2022-10-01T07:18:40;20.30;99.90
23738;DHT22;12049;51.068;3.688;2022-10-01T07:21:05;21.30;99.90
23738;DHT22;12049;51.068;3.688;2022-10-01T07:23:31;22.30;99.90
23738;DHT22;12049;51.068;3.688;2022-10-01T07:25:56;22.90;99.90
23738;DHT22;12049;51.068;3.688;2022-10-01T07:28:23;23.30;99.90
23738;DHT22;12049;51.068;3.688;2022-10-01T07:31:04;24.00;99.90
23738;DHT22;12049;51.068;3.688;2022-10-01T07:33:31;23.50;99.90
23738;DHT22;12049;51.068;3.688;2022-10-01T07:35:59;23.00;99.90
23738;DHT22;12049;51.068;3.688;2022-10-01T07:38:25;23.70;99.90
23738;DHT22;12049;51.068;3.688;2022-10-01T07:40:51;24.20;99.90
23738;DHT22;12049;51.068;3.688;2022-10-01T07:43:17;25.00;99.90
23738;DHT22;12049;51.068;3.688;2022-10-01T07:45:43;25.50;99.90
23738;DHT22;12049;51.068;3.688;2022-10-01T07:48:09;26.00;99.90
23738;DHT22;12049;51.068;3.688;2022-10-01T07:50:34;26.50;99.90
23738;DHT22;12049;51.068;3.688;2022-10-01T07:53:00;26.90;99.90
23738;DHT22;12049;51.068;3.688;2022-10-01T07:55:27;27.00;99.90
23738;DHT22;12049;51.068;3.688;2022-10-01T07:57:55;27.00;99.90
23738;DHT22;12049;51.068;3.688;2022-10-01T08:00:21;27.20;99.90
23738;DHT22;12049;51.068;3.688;2022-10-01T08:02:48;27.60;99.90
23738;DHT22;12049;51.068;3.688;2022-10-01T08:05:15;27.70;99.90
23738;DHT22;12049;51.068;3.688;2022-10-01T08:07:45;27.60;99.90
23738;DHT22;12049;51.068;3.688;2022-10-01T08:10:11;27.40;99.90
23738;DHT22;12049;51.068;3.688;2022-10-01T08:12:36;27.30;99.90
23738;DHT22;12049;51.068;3.688;2022-10-01T08:15:02;27.20;99.90
23738;DHT22;12049;51.068;3.688;2022-10-01T08:17:28;26.60;99.90
23738;DHT22;12049;51.068;3.688;2022-10-01T08:19:53;25.90;99.90
23738;DHT22;12049;51.068;3.688;2022-10-01T08:22:19;25.80;99.90
23738;DHT22;12049;51.068;3.688;2022-10-01T08:24:45;26.00;99.90
23738;DHT22;12049;51.068;3.688;2022-10-01T08:27:10;26.60;99.90
23738;DHT22;12049;51.068;3.688;2022-10-01T08:29:36;26.10;99.90
23738;DHT22;12049;51.068;3.688;2022-10-01T08:32:01;25.10;99.90
23738;DHT22;12049;51.068;3.688;2022-10-01T08:34:27;24.10;99.90
23738;DHT22;12049;51.068;3.688;2022-10-01T08:36:52;23.10;99.90
23738;DHT22;12049;51.068;3.688;2022-10-01T08:39:18;22.40;99.90
23738;DHT22;12049;51.068;3.688;2022-10-01T08:44:20;21.20;99.90
23738;DHT22;12049;51.068;3.688;2022-10-01T08:46:46;20.70;99.90
23738;DHT22;12049;51.068;3.688;2022-10-01T08:49:16;20.30;99.90
23738;DHT22;12049;51.068;3.688;2022-10-01T08:54:27;20.00;99.90
23738;DHT22;12049;51.068;3.688;2022-10-01T08:56:55;19.90;99.90
23738;DHT22;12049;51.068;3.688;2022-10-01T09:02:14;19.80;99.90
23738;DHT22;12049;51.068;3.688;2022-10-01T09:04:42;20.00;99.90
23738;DHT22;12049;51.068;3.688;2022-10-01T09:07:28;20.00;99.90
23738;DHT22;12049;51.068;3.688;2022-10-01T09:10:21;20.10;99.90
23738;DHT22;12049;51.068;3.688;2022-10-01T09:15:15;20.80;99.90
23738;DHT22;12049;51.068;3.688;2022-10-01T09:20:19;22.10;99.90
23738;DHT22;12049;51.068;3.688;2022-10-01T09:22:49;23.50;99.90
23738;DHT22;12049;51.068;3.688;2022-10-01T09:25:21;24.10;99.90
23738;DHT22;12049;51.068;3.688;2022-10-01T09:27:47;24.60;99.90
23738;DHT22;12049;51.068;3.688;2022-10-01T09:30:20;25.10;99.90
23738;DHT22;12049;51.068;3.688;2022-10-01T09:32:51;24.80;99.90
23738;DHT22;12049;51.068;3.688;2022-10-01T09:35:19;24.50;99.90
23738;DHT22;12049;51.068;3.688;2022-10-01T09:37:48;25.10;99.90
23738;DHT22;12049;51.068;3.688;2022-10-01T09:42:53;26.10;99.90
23738;DHT22;12049;51.068;3.688;2022-10-01T09:45:19;25.70;99.90
23738;DHT22;12049;51.068;3.688;2022-10-01T09:47:46;25.10;99.90
23738;DHT22;12049;51.068;3.688;2022-10-01T09:50:17;25.30;99.90
23738;DHT22;12049;51.068;3.688;2022-10-01T09:52:45;25.70;99.90
23738;DHT22;12049;51.068;3.688;2022-10-01T09:57:51;27.00;99.90
23738;DHT22;12049;51.068;3.688;2022-10-01T10:00:21;27.70;99.90
23738;DHT22;12049;51.068;3.688;2022-10-01T10:02:47;27.30;99.90
23738;DHT22;12049;51.068;3.688;2022-10-01T10:05:17;26.10;99.90
23738;DHT22;12049;51.068;3.688;2022-10-01T10:10:33;25.40;99.90
23738;DHT22;12049;51.068;3.688;2022-10-01T10:13:00;25.10;99.90
23738;DHT22;12049;51.068;3.688;2022-10-01T10:15:26;24.80;99.90
23738;DHT22;12049;51.068;3.688;2022-10-01T10:17:52;24.00;99.90
23738;DHT22;12049;51.068;3.688;2022-10-01T10:20:30;24.50;99.90
23738;DHT22;12049;51.068;3.688;2022-10-01T10:23:13;25.30;99.90
23738;DHT22;12049;51.068;3.688;2022-10-01T10:25:39;26.40;99.90
23738;DHT22;12049;51.068;3.688;2022-10-01T10:28:14;27.40;99.90
23738;DHT22;12049;51.068;3.688;2022-10-01T10:30:41;27.80;99.90
23738;DHT22;12049;51.068;3.688;2022-10-01T10:33:10;27.80;99.90
23738;DHT22;12049;51.068;3.688;2022-10-01T10:35:38;27.60;99.90
23738;DHT22;12049;51.068;3.688;2022-10-01T10:38:04;28.00;99.90
23738;DHT22;12049;51.068;3.688;2022-10-01T10:40:31;28.20;99.90
23738;DHT22;12049;51.068;3.688;2022-10-01T10:42:58;28.30;99.90
23738;DHT22;12049;51.068;3.688;2022-10-01T10:45:34;28.20;99.90
23738;DHT22;12049;51.068;3.688;2022-10-01T10:48:02;27.80;99.90
23738;DHT22;12049;51.068;3.688;2022-10-01T10:50:30;27.30;99.90
23738;DHT22;12049;51.068;3.688;2022-10-01T10:52:56;26.50;99.90
23738;DHT22;12049;51.068;3.688;2022-10-01T10:57:50;24.50;99.90
23738;DHT22;12049;51.068;3.688;2022-10-01T11:00:18;24.00;99.90
23738;DHT22;12049;51.068;3.688;2022-10-01T11:02:47;23.80;99.90
23738;DHT22;12049;51.068;3.688;2022-10-01T11:05:18;24.00;99.90
23738;DHT22;12049;51.068;3.688;2022-10-01T11:07:45;24.50;99.90
23738;DHT22;12049;51.068;3.688;2022-10-01T11:15:25;25.60;99.90
23738;DHT22;12049;51.068;3.688;2022-10-01T11:20:29;25.80;99.90
23738;DHT22;12049;51.068;3.688;2022-10-01T11:25:51;26.40;99.90
23738;DHT22;12049;51.068;3.688;2022-10-01T11:28:28;26.50;99.90
23738;DHT22;12049;51.068;3.688;2022-10-01T11:31:01;26.80;99.90
23738;DHT22;12049;51.068;3.688;2022-10-01T11:36:25;27.30;99.90
23738;DHT22;12049;51.068;3.688;2022-10-01T11:38:53;27.40;99.90
23738;DHT22;12049;51.068;3.688;2022-10-01T11:41:25;27.10;99.90
23738;DHT22;12049;51.068;3.688;2022-10-01T11:43:52;26.40;99.90
23738;DHT22;12049;51.068;3.688;2022-10-01T11:46:25;25.70;99.90
23738;DHT22;12049;51.068;3.688;2022-10-01T11:48:59;25.10;99.90
23738;DHT22;12049;51.068;3.688;2022-10-01T11:51:36;24.70;99.90
23738;DHT22;12049;51.068;3.688;2022-10-01T11:54:04;24.60;99.90
23738;DHT22;12049;51.068;3.688;2022-10-01T11:56:35;25.10;99.90
23738;DHT22;12049;51.068;3.688;2022-10-01T11:59:23;25.50;99.90
23738;DHT22;12049;51.068;3.688;2022-10-01T12:04:38;25.60;99.90
23738;DHT22;12049;51.068;3.688;2022-10-01T12:07:25;25.70;99.90
23738;DHT22;12049;51.068;3.688;2022-10-01T12:12:28;25.40;99.90
23738;DHT22;12049;51.068;3.688;2022-10-01T12:14:57;25.50;99.90
23738;DHT22;12049;51.068;3.688;2022-10-01T12:20:28;25.40;99.90
23738;DHT22;12049;51.068;3.688;2022-10-01T12:22:56;25.70;99.90
23738;DHT22;12049;51.068;3.688;2022-10-01T12:25:25;25.90;99.90
23738;DHT22;12049;51.068;3.688;2022-10-01T12:27:58;25.70;99.90
23738;DHT22;12049;51.068;3.688;2022-10-01T12:30:29;25.50;99.90
23738;DHT22;12049;51.068;3.688;2022-10-01T12:45:46;24.80;99.90
23738;DHT22;12049;51.068;3.688;2022-10-01T13:01:01;23.40;99.90
23738;DHT22;12049;51.068;3.688;2022-10-01T13:08:28;22.40;99.90
23738;DHT22;12049;51.068;3.688;2022-10-01T13:11:14;22.20;99.90
23738;DHT22;12049;51.068;3.688;2022-10-01T13:13:47;21.90;99.90
23738;DHT22;12049;51.068;3.688;2022-10-01T13:16:19;21.80;99.90
23738;DHT22;12049;51.068;3.688;2022-10-01T13:21:43;22.10;99.90
23738;DHT22;12049;51.068;3.688;2022-10-01T13:24:31;22.10;99.90
23738;DHT22;12049;51.068;3.688;2022-10-01T13:27:15;22.00;99.90
23738;DHT22;12049;51.068;3.688;2022-10-01T13:29:51;22.00;99.90
23738;DHT22;12049;51.068;3.688;2022-10-01T13:32:26;22.00;99.90
23738;DHT22;12049;51.068;3.688;2022-10-01T13:34:52;22.00;99.90
23738;DHT22;12049;51.068;3.688;2022-10-01T13:37:30;21.60;99.90
23738;DHT22;12049;51.068;3.688;2022-10-01T13:39:56;21.50;99.90
23738;DHT22;12049;51.068;3.688;2022-10-01T13:42:23;21.30;99.90
23738;DHT22;12049;51.068;3.688;2022-10-01T13:44:54;21.10;99.90
23738;DHT22;12049;51.068;3.688;2022-10-01T13:47:20;21.30;99.90
23738;DHT22;12049;51.068;3.688;2022-10-01T13:50:06;21.10;99.90
23738;DHT22;12049;51.068;3.688;2022-10-01T13:52:37;20.70;99.90
23738;DHT22;12049;51.068;3.688;2022-10-01T13:55:03;20.50;99.90
23738;DHT22;12049;51.068;3.688;2022-10-01T13:57:35;20.50;99.90
23738;DHT22;12049;51.068;3.688;2022-10-01T14:02:34;20.50;99.90
23738;DHT22;12049;51.068;3.688;2022-10-01T14:05:18;20.60;99.90
23738;DHT22;12049;51.068;3.688;2022-10-01T14:07:48;20.50;99.90
23738;DHT22;12049;51.068;3.688;2022-10-01T14:10:14;20.30;99.90
23738;DHT22;12049;51.068;3.688;2022-10-01T14:12:41;20.30;99.90
23738;DHT22;12049;51.068;3.688;2022-10-01T14:15:28;20.50;99.90
23738;DHT22;12049;51.068;3.688;2022-10-01T14:18:16;20.50;99.90
23738;DHT22;12049;51.068;3.688;2022-10-01T14:23:15;20.30;99.90
23738;DHT22;12049;51.068;3.688;2022-10-01T14:25:52;20.20;99.90
23738;DHT22;12049;51.068;3.688;2022-10-01T14:28:23;20.10;99.90
23738;DHT22;12049;51.068;3.688;2022-10-01T14:36:02;19.90;99.90
23738;DHT22;12049;51.068;3.688;2022-10-01T14:38:31;20.00;99.90
23738;DHT22;12049;51.068;3.688;2022-10-01T14:40:56;19.90;99.90
23738;DHT22;12049;51.068;3.688;2022-10-01T14:43:26;20.00;99.90
23738;DHT22;12049;51.068;3.688;2022-10-01T14:45:56;20.00;99.90
23738;DHT22;12049;51.068;3.688;2022-10-01T14:48:23;20.00;99.90
23738;DHT22;12049;51.068;3.688;2022-10-01T14:50:49;19.90;99.90
23738;DHT22;12049;51.068;3.688;2022-10-01T14:53:15;19.90;99.90
23738;DHT22;12049;51.068;3.688;2022-10-01T14:55:42;19.80;99.90
23738;DHT22;12049;51.068;3.688;2022-10-01T14:58:10;19.80;99.90
23738;DHT22;12049;51.068;3.688;2022-10-01T15:00:46;19.90;99.90
23738;DHT22;12049;51.068;3.688;2022-10-01T15:03:13;19.80;99.90
23738;DHT22;12049;51.068;3.688;2022-10-01T15:05:43;19.80;99.90
23738;DHT22;12049;51.068;3.688;2022-10-01T15:08:09;19.80;99.90
23738;DHT22;12049;51.068;3.688;2022-10-01T15:10:38;19.80;99.90
23738;DHT22;12049;51.068;3.688;2022-10-01T15:13:04;19.70;99.90
23738;DHT22;12049;51.068;3.688;2022-10-01T15:15:32;19.70;99.90
23738;DHT22;12049;51.068;3.688;2022-10-01T15:17:58;19.70;99.90
23738;DHT22;12049;51.068;3.688;2022-10-01T15:20:24;19.60;99.90
23738;DHT22;12049;51.068;3.688;2022-10-01T15:22:49;19.60;99.90
23738;DHT22;12049;51.068;3.688;2022-10-01T15:25:25;19.50;99.90
23738;DHT22;12049;51.068;3.688;2022-10-01T15:27:52;19.40;99.90
23738;DHT22;12049;51.068;3.688;2022-10-01T15:30:25;19.40;99.90
23738;DHT22;12049;51.068;3.688;2022-10-01T15:32:51;19.50;99.90
23738;DHT22;12049;51.068;3.688;2022-10-01T15:35:18;19.40;99.90
23738;DHT22;12049;51.068;3.688;2022-10-01T15:37:44;19.50;99.90
23738;DHT22;12049;51.068;3.688;2022-10-01T15:42:54;19.60;99.90
23738;DHT22;12049;51.068;3.688;2022-10-01T15:45:30;19.40;99.90
23738;DHT22;12049;51.068;3.688;2022-10-01T15:47:55;19.30;99.90
23738;DHT22;12049;51.068;3.688;2022-10-01T15:50:35;19.20;99.90
23738;DHT22;12049;51.068;3.688;2022-10-01T15:53:05;19.20;99.90
23738;DHT22;12049;51.068;3.688;2022-10-01T15:55:56;19.20;99.90
23738;DHT22;12049;51.068;3.688;2022-10-01T15:58:28;19.30;99.90
23738;DHT22;12049;51.068;3.688;2022-10-01T16:03:25;19.30;99.90
23738;DHT22;12049;51.068;3.688;2022-10-01T16:05:53;19.20;99.90
23738;DHT22;12049;51.068;3.688;2022-10-01T16:08:20;19.10;99.90
23738;DHT22;12049;51.068;3.688;2022-10-01T16:10:47;19.20;99.90
23738;DHT22;12049;51.068;3.688;2022-10-01T16:18:34;19.10;99.90
23738;DHT22;12049;51.068;3.688;2022-10-01T16:21:02;19.10;99.90
23738;DHT22;12049;51.068;3.688;2022-10-01T16:26:00;19.10;99.90
23738;DHT22;12049;51.068;3.688;2022-10-01T16:28:33;19.10;99.90
23738;DHT22;12049;51.068;3.688;2022-10-01T16:30:59;19.00;99.90
23738;DHT22;12049;51.068;3.688;2022-10-01T16:33:25;19.00;99.90
23738;DHT22;12049;51.068;3.688;2022-10-01T16:36:05;19.00;99.90
23738;DHT22;12049;51.068;3.688;2022-10-01T16:38:32;19.00;99.90
23738;DHT22;12049;51.068;3.688;2022-10-01T16:40:57;19.00;99.90
23738;DHT22;12049;51.068;3.688;2022-10-01T16:43:23;19.00;99.90
23738;DHT22;12049;51.068;3.688;2022-10-01T16:45:49;19.00;99.90
23738;DHT22;12049;51.068;3.688;2022-10-01T16:48:16;18.90;99.90
23738;DHT22;12049;51.068;3.688;2022-10-01T16:50:42;18.90;99.90
23738;DHT22;12049;51.068;3.688;2022-10-01T16:53:11;18.90;99.90
23738;DHT22;12049;51.068;3.688;2022-10-01T16:55:37;18.90;99.90
23738;DHT22;12049;51.068;3.688;2022-10-01T16:58:03;18.90;99.90
23738;DHT22;12049;51.068;3.688;2022-10-01T17:00:28;18.90;99.90
23738;DHT22;12049;51.068;3.688;2022-10-01T17:02:54;18.80;99.90
23738;DHT22;12049;51.068;3.688;2022-10-01T17:05:25;18.80;99.90
23738;DHT22;12049;51.068;3.688;2022-10-01T17:07:51;18.60;99.90
23738;DHT22;12049;51.068;3.688;2022-10-01T17:10:17;18.60;99.90
23738;DHT22;12049;51.068;3.688;2022-10-01T17:12:44;18.60;99.90
23738;DHT22;12049;51.068;3.688;2022-10-01T17:15:13;18.50;99.90
23738;DHT22;12049;51.068;3.688;2022-10-01T17:17:42;18.40;99.90
23738;DHT22;12049;51.068;3.688;2022-10-01T17:20:08;18.40;99.90
23738;DHT22;12049;51.068;3.688;2022-10-01T17:22:33;18.30;99.90
23738;DHT22;12049;51.068;3.688;2022-10-01T17:24:59;18.40;99.90
23738;DHT22;12049;51.068;3.688;2022-10-01T17:27:24;18.40;99.90
23738;DHT22;12049;51.068;3.688;2022-10-01T17:29:50;18.30;99.90
23738;DHT22;12049;51.068;3.688;2022-10-01T17:32:16;18.20;99.90
23738;DHT22;12049;51.068;3.688;2022-10-01T17:34:46;18.20;99.90
23738;DHT22;12049;51.068;3.688;2022-10-01T17:37:11;18.10;99.90
23738;DHT22;12049;51.068;3.688;2022-10-01T17:39:37;18.10;99.90
23738;DHT22;12049;51.068;3.688;2022-10-01T17:42:03;17.90;99.90